Time;durP1;ratioP1;P1;durP2;ratioP2;P2;SDS_P1;SDS_P2;PMS_P1;PMS_P2;Temp;Humidity;BMP_temperature;BMP_pressure;BME280_temperature;BME280_humidity;BME280_pressure;Samples;Min_cycle;Max_cycle;Signal;HPM_P1;HPM_P2
2023/07/12 00:00:49;;;;;;;5.57;4.03;;;17.90;99.90;;;;;;5043260;28;20106;-64
2023/07/12 00:03:16;;;;;;;6.18;4.00;;;17.70;99.90;;;;;;5026523;28;20113;-64
2023/07/12 00:05:42;;;;;;;6.07;3.60;;;17.60;99.90;;;;;;5040263;28;20079;-64
2023/07/12 00:08:25;;;;;;;5.80;3.60;;;17.90;99.90;;;;;;5043023;28;20037;-66
2023/07/12 00:10:53;;;;;;;5.68;3.58;;;17.90;99.90;;;;;;5042565;28;20131;-64
2023/07/12 00:13:19;;;;;;;7.22;3.70;;;18.00;99.90;;;;;;5037931;28;20038;-64
2023/07/12 00:15:46;;;;;;;6.72;3.42;;;17.60;99.90;;;;;;5021073;28;20094;-64
2023/07/12 00:18:22;;;;;;;7.13;3.58;;;18.00;99.90;;;;;;5030425;28;20060;-64
2023/07/12 00:20:49;;;;;;;4.53;3.38;;;17.10;99.90;;;;;;5041041;28;20045;-64
2023/07/12 00:23:17;;;;;;;5.25;4.00;;;17.80;99.90;;;;;;5034473;28;20033;-64
2023/07/12 00:25:44;;;;;;;4.70;3.05;;;17.60;99.90;;;;;;5041684;28;20115;-63
2023/07/12 00:28:22;;;;;;;5.95;3.40;;;17.60;99.90;;;;;;5038367;28;20099;-64
2023/07/12 00:30:49;;;;;;;5.93;3.50;;;17.30;99.90;;;;;;5032809;28;20397;-63
2023/07/12 00:33:15;;;;;;;4.32;2.88;;;17.90;99.90;;;;;;5029511;28;20041;-64
2023/07/12 00:35:42;;;;;;;5.30;3.63;;;17.10;99.90;;;;;;5040357;28;20095;-64
2023/07/12 00:38:16;;;;;;;7.63;4.22;;;17.40;99.90;;;;;;5034660;28;20064;-64
2023/07/12 00:41:04;;;;;;;6.30;4.07;;;17.20;99.90;;;;;;5032765;28;20146;-63
2023/07/12 00:43:48;;;;;;;5.05;3.67;;;17.40;99.90;;;;;;5033158;28;20434;-64
2023/07/12 00:46:19;;;;;;;9.38;3.58;;;17.80;99.90;;;;;;5036128;28;20029;-64
2023/07/12 00:48:46;;;;;;;6.20;3.72;;;17.40;99.90;;;;;;5045453;28;20072;-63
2023/07/12 00:51:48;;;;;;;6.07;3.75;;;17.70;99.90;;;;;;5040616;28;20086;-63
2023/07/12 00:54:24;;;;;;;5.18;3.53;;;17.50;99.90;;;;;;5039294;28;20041;-64
2023/07/12 00:56:50;;;;;;;6.63;3.83;;;17.50;99.90;;;;;;5035775;28;20060;-64
2023/07/12 00:59:21;;;;;;;6.57;3.97;;;17.90;99.90;;;;;;5045976;28;20044;-64
2023/07/12 01:01:50;;;;;;;6.00;3.75;;;17.50;99.90;;;;;;5037226;28;20052;-64
2023/07/12 01:04:21;;;;;;;5.88;3.47;;;17.40;99.90;;;;;;5040951;28;20370;-64
2023/07/12 01:06:49;;;;;;;5.60;3.72;;;17.20;99.90;;;;;;5032914;28;20455;-63
2023/07/12 01:09:17;;;;;;;5.55;3.60;;;17.50;99.90;;;;;;5033927;28;20052;-64
2023/07/12 01:11:43;;;;;;;5.20;3.67;;;17.80;99.90;;;;;;5033794;28;20171;-64
2023/07/12 01:14:11;;;;;;;7.78;3.80;;;17.60;99.90;;;;;;5034362;28;20080;-64
2023/07/12 01:16:38;;;;;;;7.93;3.78;;;17.80;99.90;;;;;;5035420;28;20488;-64
2023/07/12 01:19:04;;;;;;;5.15;3.50;;;17.70;99.90;;;;;;5036514;28;20029;-64
2023/07/12 01:21:33;;;;;;;6.50;3.97;;;17.80;99.90;;;;;;5033697;28;20053;-64
2023/07/12 01:24:00;;;;;;;7.15;3.95;;;17.70;99.90;;;;;;5036572;28;20032;-66
2023/07/12 01:26:47;;;;;;;6.85;3.85;;;17.80;99.90;;;;;;5032879;28;20104;-63
2023/07/12 01:29:13;;;;;;;6.95;3.30;;;17.60;99.90;;;;;;5032249;28;20215;-64
2023/07/12 01:31:40;;;;;;;6.50;3.53;;;17.50;99.90;;;;;;5032801;28;20094;-64
2023/07/12 01:34:06;;;;;;;4.75;3.40;;;17.70;99.90;;;;;;5035507;28;20120;-64
2023/07/12 01:36:32;;;;;;;5.38;3.38;;;17.50;99.90;;;;;;5034886;28;20072;-64
2023/07/12 01:39:00;;;;;;;4.90;3.20;;;17.30;99.90;;;;;;5032807;28;20064;-64
2023/07/12 01:41:27;;;;;;;5.13;3.30;;;17.60;99.90;;;;;;5037707;28;20085;-63
2023/07/12 01:43:53;;;;;;;6.22;3.30;;;17.50;99.90;;;;;;5040823;28;20033;-63
2023/07/12 01:46:20;;;;;;;5.45;3.53;;;17.30;99.90;;;;;;5031042;28;20116;-63
2023/07/12 01:48:46;;;;;;;6.82;3.20;;;17.30;99.90;;;;;;5044912;28;20366;-64
2023/07/12 01:51:12;;;;;;;6.45;3.47;;;17.10;99.90;;;;;;5032878;28;20218;-64
2023/07/12 01:53:38;;;;;;;6.93;3.50;;;17.10;99.90;;;;;;5044095;28;20115;-64
2023/07/12 01:56:05;;;;;;;4.53;3.35;;;17.30;99.90;;;;;;5043972;28;20346;-64
2023/07/12 01:58:31;;;;;;;4.40;3.33;;;17.20;99.90;;;;;;5018694;28;20132;-64
2023/07/12 02:00:58;;;;;;;6.15;3.03;;;17.20;99.90;;;;;;5027203;28;20049;-64
2023/07/12 02:03:24;;;;;;;5.72;3.25;;;17.30;99.90;;;;;;5034713;28;20572;-64
2023/07/12 02:05:50;;;;;;;6.72;3.28;;;17.20;99.90;;;;;;5031355;28;20327;-64
2023/07/12 02:08:15;;;;;;;5.93;3.97;;;17.30;99.90;;;;;;5039696;28;20111;-63
2023/07/12 02:10:41;;;;;;;5.07;3.63;;;17.20;99.90;;;;;;5038886;28;20049;-63
2023/07/12 02:13:07;;;;;;;7.10;3.65;;;17.20;99.90;;;;;;5042551;28;20060;-64
2023/07/12 02:15:33;;;;;;;5.03;3.42;;;16.90;99.90;;;;;;5039981;28;20091;-64
2023/07/12 02:17:59;;;;;;;7.25;3.10;;;16.90;99.90;;;;;;5034318;28;20069;-63
2023/07/12 02:20:25;;;;;;;6.78;3.95;;;17.00;99.90;;;;;;5031432;28;20056;-64
2023/07/12 02:22:50;;;;;;;5.50;3.22;;;17.00;99.90;;;;;;5034058;28;20697;-64
2023/07/12 02:25:17;;;;;;;8.55;3.80;;;16.90;99.90;;;;;;5031638;28;20198;-64
2023/07/12 02:27:44;;;;;;;6.93;3.65;;;16.90;99.90;;;;;;5031018;28;20079;-64
2023/07/12 02:30:12;;;;;;;11.70;3.80;;;16.80;99.90;;;;;;5037166;28;20036;-64
2023/07/12 02:32:38;;;;;;;5.57;3.63;;;17.00;99.90;;;;;;5042155;28;20136;-63
2023/07/12 02:35:04;;;;;;;6.32;3.85;;;16.70;99.90;;;;;;5033129;28;20029;-64
2023/07/12 02:37:30;;;;;;;5.32;3.30;;;16.70;99.90;;;;;;5041575;28;21047;-63
2023/07/12 02:39:56;;;;;;;7.43;3.72;;;16.80;99.90;;;;;;5042956;28;20033;-64
2023/07/12 02:42:22;;;;;;;6.03;3.20;;;16.80;99.90;;;;;;5040606;28;20148;-64
2023/07/12 02:44:49;;;;;;;8.63;3.60;;;16.60;99.90;;;;;;5040128;28;20452;-64
2023/07/12 02:47:15;;;;;;;10.00;3.42;;;16.70;99.90;;;;;;5029824;28;20530;-63
2023/07/12 02:49:40;;;;;;;7.20;3.40;;;16.60;99.90;;;;;;5034712;28;20072;-64
2023/07/12 02:52:07;;;;;;;7.47;3.50;;;16.60;99.90;;;;;;5032982;28;20186;-64
2023/07/12 02:54:33;;;;;;;9.00;3.53;;;16.50;99.90;;;;;;5041015;28;20116;-64
2023/07/12 02:56:59;;;;;;;7.30;3.72;;;16.60;99.90;;;;;;5016491;28;20497;-64
2023/07/12 02:59:25;;;;;;;5.72;3.22;;;16.60;99.90;;;;;;5034053;28;20065;-63
2023/07/12 03:01:51;;;;;;;6.10;3.65;;;16.60;99.90;;;;;;5034551;28;20036;-64
2023/07/12 03:04:17;;;;;;;7.32;3.83;;;16.50;99.90;;;;;;5038740;28;20034;-64
2023/07/12 03:06:43;;;;;;;7.88;3.88;;;16.50;99.90;;;;;;5029903;28;20046;-64
2023/07/12 03:09:09;;;;;;;8.07;4.15;;;16.50;99.90;;;;;;5037534;28;20380;-64
2023/07/12 03:11:35;;;;;;;7.65;3.78;;;16.40;99.90;;;;;;5040964;28;20116;-63
2023/07/12 03:14:00;;;;;;;9.48;3.95;;;16.40;99.90;;;;;;5036504;28;20140;-62
2023/07/12 03:16:26;;;;;;;5.78;3.53;;;16.40;99.90;;;;;;5029184;28;20068;-62
2023/07/12 03:18:52;;;;;;;5.78;3.30;;;16.50;99.90;;;;;;5036477;28;20068;-64
2023/07/12 03:21:18;;;;;;;13.40;3.92;;;16.30;99.90;;;;;;5032253;28;20063;-64
2023/07/12 03:23:44;;;;;;;11.35;3.50;;;16.40;99.90;;;;;;5032468;28;20036;-64
2023/07/12 03:26:10;;;;;;;10.05;3.30;;;16.40;99.90;;;;;;5034334;28;20067;-64
2023/07/12 03:28:35;;;;;;;6.47;3.70;;;16.40;99.90;;;;;;5029231;28;20042;-63
2023/07/12 03:31:05;;;;;;;6.60;3.33;;;16.30;99.90;;;;;;5035838;28;20032;-63
2023/07/12 03:33:32;;;;;;;7.82;3.53;;;16.30;99.90;;;;;;5044100;28;20119;-64
2023/07/12 03:35:57;;;;;;;7.03;3.70;;;16.40;99.90;;;;;;5037252;28;20104;-64
2023/07/12 03:38:27;;;;;;;11.10;3.90;;;16.30;99.90;;;;;;5036883;28;20052;-64
2023/07/12 03:40:59;;;;;;;12.32;3.90;;;16.40;99.90;;;;;;5042204;28;20033;-64
2023/07/12 03:43:26;;;;;;;6.90;3.50;;;16.30;99.90;;;;;;5030143;28;20040;-63
2023/07/12 03:45:52;;;;;;;7.90;3.80;;;16.30;99.90;;;;;;5034393;28;20143;-64
2023/07/12 03:48:18;;;;;;;6.72;3.30;;;16.30;99.90;;;;;;5018853;28;20377;-63
2023/07/12 03:50:47;;;;;;;9.13;3.60;;;16.30;99.90;;;;;;5039348;28;20102;-63
2023/07/12 03:53:13;;;;;;;10.10;3.75;;;16.30;99.90;;;;;;5030548;28;20033;-64
2023/07/12 03:55:41;;;;;;;11.05;3.97;;;16.30;99.90;;;;;;5031575;28;20177;-64
2023/07/12 03:58:07;;;;;;;10.63;3.72;;;16.30;99.90;;;;;;5040579;28;20067;-64
2023/07/12 04:00:33;;;;;;;9.18;3.58;;;16.30;99.90;;;;;;5026049;28;20053;-64
2023/07/12 04:02:58;;;;;;;9.68;4.32;;;16.30;99.90;;;;;;5041287;28;20037;-64
2023/07/12 04:05:24;;;;;;;10.18;4.05;;;16.30;99.90;;;;;;5028550;28;20029;-64
2023/07/12 04:07:51;;;;;;;9.10;4.10;;;16.20;99.90;;;;;;5029362;28;20120;-64
2023/07/12 04:10:17;;;;;;;7.30;4.20;;;16.20;99.90;;;;;;5043117;28;20073;-64
2023/07/12 04:12:42;;;;;;;8.35;3.85;;;16.30;99.90;;;;;;5017524;28;20519;-64
2023/07/12 04:15:08;;;;;;;14.82;4.80;;;16.40;99.90;;;;;;5045111;28;20364;-64
2023/07/12 04:17:34;;;;;;;10.38;4.45;;;16.40;99.90;;;;;;5050015;28;20039;-64
2023/07/12 04:19:59;;;;;;;10.85;4.97;;;16.40;99.90;;;;;;5041441;28;20056;-63
2023/07/12 04:22:25;;;;;;;13.73;5.03;;;16.40;99.90;;;;;;5047980;28;20043;-62
2023/07/12 04:24:52;;;;;;;11.82;5.45;;;16.40;99.90;;;;;;5044530;28;20041;-64
2023/07/12 04:27:21;;;;;;;9.45;5.07;;;16.40;99.90;;;;;;5042342;28;20033;-64
2023/07/12 04:29:47;;;;;;;15.23;5.20;;;16.40;99.90;;;;;;5039234;28;20091;-64
2023/07/12 04:32:12;;;;;;;10.70;4.82;;;16.40;99.90;;;;;;5031476;28;20073;-64
2023/07/12 04:34:38;;;;;;;13.18;5.25;;;16.30;99.90;;;;;;5038993;28;20041;-65
2023/07/12 04:37:04;;;;;;;10.50;5.30;;;16.50;99.90;;;;;;5023443;28;20045;-64
2023/07/12 04:39:30;;;;;;;12.77;4.80;;;16.40;99.90;;;;;;5045427;28;20102;-64
2023/07/12 04:41:55;;;;;;;9.65;4.22;;;16.40;99.90;;;;;;5034940;28;20146;-64
2023/07/12 04:44:21;;;;;;;9.60;4.70;;;16.40;99.90;;;;;;5035775;28;20033;-64
2023/07/12 04:46:47;;;;;;;11.55;5.10;;;16.30;99.90;;;;;;5034158;28;20083;-65
2023/07/12 04:49:12;;;;;;;14.02;4.80;;;16.30;99.90;;;;;;5045452;28;20037;-65
2023/07/12 04:51:38;;;;;;;13.27;4.68;;;16.40;99.90;;;;;;5045007;28;20071;-65
2023/07/12 04:54:03;;;;;;;10.80;4.70;;;16.30;99.90;;;;;;5037434;28;20033;-63
2023/07/12 04:56:29;;;;;;;7.63;4.50;;;16.30;99.90;;;;;;5044490;28;20120;-65
2023/07/12 04:58:55;;;;;;;8.65;4.47;;;16.30;99.90;;;;;;5040763;28;20048;-64
2023/07/12 05:01:21;;;;;;;9.75;3.97;;;16.40;99.90;;;;;;5033779;28;20049;-64
2023/07/12 05:03:47;;;;;;;9.50;4.40;;;16.30;99.90;;;;;;5038344;28;20054;-65
2023/07/12 05:06:13;;;;;;;11.25;4.53;;;16.20;99.90;;;;;;5047976;28;20041;-65
2023/07/12 05:08:39;;;;;;;10.52;4.18;;;16.20;99.90;;;;;;5041471;28;20120;-65
2023/07/12 05:11:04;;;;;;;10.02;4.53;;;16.30;99.90;;;;;;5040980;28;20147;-64
2023/07/12 05:13:30;;;;;;;13.63;4.80;;;16.30;99.90;;;;;;5035959;28;20593;-65
2023/07/12 05:15:56;;;;;;;8.75;4.38;;;16.30;99.90;;;;;;5035671;28;20072;-65
2023/07/12 05:18:22;;;;;;;10.95;4.90;;;16.20;99.90;;;;;;5031391;28;20041;-65
2023/07/12 05:20:50;;;;;;;11.10;4.25;;;16.30;99.90;;;;;;5044536;28;20344;-65
2023/07/12 05:23:16;;;;;;;9.63;4.60;;;16.20;99.90;;;;;;5039196;28;20032;-66
2023/07/12 05:25:52;;;;;;;9.60;4.20;;;16.30;99.90;;;;;;5037704;28;20113;-65
2023/07/12 05:28:18;;;;;;;18.73;4.97;;;16.30;99.90;;;;;;5042664;28;20381;-65
2023/07/12 05:30:43;;;;;;;15.65;5.15;;;16.30;99.90;;;;;;5031157;28;20076;-66
2023/07/12 05:33:09;;;;;;;12.48;4.85;;;16.30;99.90;;;;;;5042401;28;20044;-65
2023/07/12 05:35:35;;;;;;;17.92;5.22;;;16.40;99.90;;;;;;5043783;28;20242;-65
2023/07/12 05:38:02;;;;;;;11.98;4.68;;;16.50;99.90;;;;;;5031288;28;20127;-64
2023/07/12 05:40:29;;;;;;;11.68;5.28;;;16.60;99.90;;;;;;5034605;28;20357;-65
2023/07/12 05:42:55;;;;;;;10.27;4.90;;;16.70;99.90;;;;;;5046708;28;20048;-65
2023/07/12 05:45:21;;;;;;;8.10;4.50;;;16.90;99.90;;;;;;5029912;28;20037;-64
2023/07/12 05:47:47;;;;;;;13.75;5.40;;;17.10;99.90;;;;;;5035114;28;20029;-65
2023/07/12 05:50:14;;;;;;;17.58;5.53;;;17.10;99.90;;;;;;5040327;28;20044;-64
2023/07/12 05:52:40;;;;;;;18.38;6.70;;;17.00;99.90;;;;;;5044129;28;20146;-66
2023/07/12 05:55:08;;;;;;;13.20;5.82;;;17.00;99.90;;;;;;5046615;28;20084;-66
2023/07/12 05:57:34;;;;;;;16.33;6.35;;;16.90;99.90;;;;;;5045750;28;20055;-66
2023/07/12 06:00:00;;;;;;;14.00;5.88;;;16.70;99.90;;;;;;5027845;28;20446;-66
2023/07/12 06:02:27;;;;;;;13.73;6.05;;;16.80;99.90;;;;;;5037438;28;20033;-66
2023/07/12 06:04:52;;;;;;;19.38;7.03;;;16.80;99.90;;;;;;5043178;28;20068;-66
2023/07/12 06:07:18;;;;;;;14.27;5.78;;;16.70;99.90;;;;;;5033537;28;20056;-66
2023/07/12 06:09:44;;;;;;;18.15;6.97;;;16.80;99.90;;;;;;5032522;28;20072;-66
2023/07/12 06:12:10;;;;;;;14.07;6.40;;;16.70;99.90;;;;;;5045990;28;20052;-66
2023/07/12 06:14:37;;;;;;;17.40;7.35;;;16.60;99.90;;;;;;5044057;28;20056;-66
2023/07/12 06:17:04;;;;;;;15.93;7.75;;;16.80;99.90;;;;;;5034123;28;20045;-65
2023/07/12 06:19:29;;;;;;;15.15;7.43;;;17.00;99.90;;;;;;5034868;28;20040;-64
2023/07/12 06:21:55;;;;;;;14.38;6.60;;;16.90;99.90;;;;;;5044100;28;20508;-66
2023/07/12 06:24:21;;;;;;;16.92;6.88;;;16.90;99.90;;;;;;5037263;28;20404;-65
2023/07/12 06:26:46;;;;;;;14.98;6.85;;;16.90;99.90;;;;;;5012661;28;20438;-65
2023/07/12 06:29:12;;;;;;;16.85;7.25;;;16.90;99.90;;;;;;5027748;28;20095;-65
2023/07/12 06:31:38;;;;;;;14.75;7.43;;;16.90;99.90;;;;;;5025860;28;20118;-65
2023/07/12 06:34:04;;;;;;;17.95;6.70;;;17.00;99.90;;;;;;5035357;28;20060;-66
2023/07/12 06:36:30;;;;;;;15.75;7.20;;;17.30;99.90;;;;;;5017731;28;20071;-66
2023/07/12 06:38:56;;;;;;;11.95;6.45;;;17.30;99.90;;;;;;5032954;28;20045;-64
2023/07/12 06:41:22;;;;;;;12.30;6.20;;;17.40;99.90;;;;;;5033574;28;20038;-65
2023/07/12 06:43:48;;;;;;;13.73;6.30;;;17.30;99.90;;;;;;5043159;28;20078;-65
2023/07/12 06:46:14;;;;;;;13.00;5.97;;;17.20;99.90;;;;;;5040275;28;20345;-66
2023/07/12 06:48:40;;;;;;;10.48;6.15;;;17.30;99.90;;;;;;5038332;28;20085;-65
2023/07/12 06:51:05;;;;;;;12.85;6.47;;;17.40;99.90;;;;;;5030828;28;20093;-65
2023/07/12 06:53:31;;;;;;;11.95;6.15;;;17.40;99.90;;;;;;5040911;28;20063;-67
2023/07/12 06:55:57;;;;;;;9.60;6.05;;;17.50;99.90;;;;;;5039132;28;20040;-65
2023/07/12 06:58:23;;;;;;;13.10;5.82;;;17.60;99.90;;;;;;5031782;28;20033;-65
2023/07/12 07:00:48;;;;;;;9.75;6.05;;;17.60;99.90;;;;;;5037461;28;20034;-66
2023/07/12 07:03:16;;;;;;;12.55;5.65;;;17.50;99.90;;;;;;5037186;28;20048;-65
2023/07/12 07:05:44;;;;;;;11.93;5.60;;;17.60;99.90;;;;;;5019638;28;20036;-64
2023/07/12 07:08:12;;;;;;;14.52;5.65;;;17.50;99.90;;;;;;5036581;28;20119;-63
2023/07/12 07:10:37;;;;;;;16.17;6.07;;;17.50;99.90;;;;;;5036427;28;20056;-64
2023/07/12 07:13:03;;;;;;;16.88;5.90;;;17.60;99.90;;;;;;5040033;28;20052;-66
2023/07/12 07:15:29;;;;;;;10.65;5.65;;;17.80;99.90;;;;;;5033150;28;20453;-66
2023/07/12 07:17:55;;;;;;;13.40;5.38;;;18.00;99.90;;;;;;5027103;28;20493;-66
2023/07/12 07:20:22;;;;;;;13.18;5.40;;;18.30;99.90;;;;;;5031065;28;20431;-66
2023/07/12 07:22:47;;;;;;;10.00;5.40;;;18.60;99.90;;;;;;5032795;28;20067;-65
2023/07/12 07:25:13;;;;;;;11.05;4.95;;;18.70;99.90;;;;;;5027565;28;20109;-66
2023/07/12 07:27:38;;;;;;;9.93;4.93;;;18.90;99.90;;;;;;5030414;28;20030;-66
2023/07/12 07:30:05;;;;;;;11.00;4.78;;;19.10;99.90;;;;;;5039309;28;20401;-67
2023/07/12 07:32:30;;;;;;;9.05;4.32;;;19.30;99.90;;;;;;5025072;28;20052;-65
2023/07/12 07:34:56;;;;;;;11.20;4.65;;;19.50;99.90;;;;;;5010751;28;20361;-66
2023/07/12 07:37:21;;;;;;;10.57;4.85;;;19.30;99.90;;;;;;5031695;28;20055;-66
2023/07/12 07:39:47;;;;;;;11.40;4.65;;;19.10;99.90;;;;;;5033062;28;20045;-66
2023/07/12 07:42:13;;;;;;;8.13;4.50;;;19.10;99.90;;;;;;5027552;28;20131;-66
2023/07/12 07:44:38;;;;;;;10.68;4.65;;;19.10;99.90;;;;;;5027944;28;20041;-66
2023/07/12 07:47:04;;;;;;;10.05;4.40;;;19.10;99.90;;;;;;5028535;28;20046;-66
2023/07/12 07:49:30;;;;;;;10.88;4.22;;;19.00;99.90;;;;;;5047934;28;20048;-65
2023/07/12 07:51:55;;;;;;;10.27;4.82;;;19.00;99.90;;;;;;5045952;28;20071;-66
2023/07/12 07:54:21;;;;;;;6.30;4.07;;;19.20;99.90;;;;;;5030007;28;20053;-68
2023/07/12 07:56:48;;;;;;;7.82;3.97;;;19.50;99.90;;;;;;5036271;28;20049;-67
2023/07/12 07:59:15;;;;;;;10.85;4.43;;;19.60;99.90;;;;;;5027789;28;20033;-67
2023/07/12 08:01:40;;;;;;;6.85;3.75;;;20.00;99.90;;;;;;5022441;28;20045;-67
2023/07/12 08:04:08;;;;;;;8.60;3.97;;;20.20;99.90;;;;;;5028269;28;20425;-68
2023/07/12 08:06:34;;;;;;;9.38;4.88;;;20.00;99.90;;;;;;5031234;28;20046;-67
2023/07/12 08:09:00;;;;;;;11.75;3.63;;;19.90;99.90;;;;;;5032165;28;20045;-68
2023/07/12 08:11:26;;;;;;;10.40;4.28;;;20.20;99.90;;;;;;5033940;28;20367;-68
2023/07/12 08:13:52;;;;;;;9.77;3.88;;;20.50;99.90;;;;;;5032149;28;20116;-69
2023/07/12 08:16:17;;;;;;;8.20;3.72;;;21.00;99.90;;;;;;5024324;28;20321;-68
2023/07/12 08:18:43;;;;;;;10.85;3.55;;;21.20;99.80;;;;;;5041599;28;20529;-68
2023/07/12 08:21:08;;;;;;;8.60;3.42;;;21.20;98.40;;;;;;5039409;28;20045;-70
2023/07/12 08:23:34;;;;;;;8.95;3.75;;;20.80;95.70;;;;;;5032481;28;20033;-68
2023/07/12 08:25:59;;;;;;;10.90;3.40;;;20.70;94.90;;;;;;5036934;28;20037;-67
2023/07/12 08:28:25;;;;;;;7.30;3.55;;;21.30;93.50;;;;;;5034432;28;20121;-68
2023/07/12 08:30:51;;;;;;;10.60;3.92;;;21.30;92.40;;;;;;5040163;28;20058;-68
2023/07/12 08:33:17;;;;;;;9.57;3.83;;;21.10;90.80;;;;;;5034747;28;20055;-69
2023/07/12 08:35:43;;;;;;;8.63;3.72;;;21.00;90.40;;;;;;5034285;28;20081;-69
2023/07/12 08:38:09;;;;;;;10.52;3.55;;;21.30;89.70;;;;;;5035528;28;20073;-69
2023/07/12 08:40:42;;;;;;;8.13;3.25;;;21.90;88.30;;;;;;5029247;28;20037;-70
2023/07/12 08:43:14;;;;;;;7.32;3.30;;;22.40;84.00;;;;;;5016510;28;20045;-70
2023/07/12 08:45:41;;;;;;;6.72;3.58;;;23.00;83.10;;;;;;5032924;28;20159;-69
2023/07/12 08:48:19;;;;;;;12.05;4.75;;;22.90;82.70;;;;;;5028881;28;20076;-69
2023/07/12 08:50:46;;;;;;;14.07;3.47;;;22.40;74.80;;;;;;5056998;28;20053;-69
2023/07/12 08:53:16;;;;;;;6.18;3.72;;;22.00;80.00;;;;;;5036670;28;20041;-71
2023/07/12 08:55:42;;;;;;;7.22;3.53;;;21.60;75.50;;;;;;5045959;28;20489;-69
2023/07/12 08:58:32;;;;;;;11.15;3.30;;;21.30;80.60;;;;;;5035202;28;20123;-69
2023/07/12 09:01:08;;;;;;;13.52;3.47;;;21.20;77.40;;;;;;5039182;28;20512;-69
2023/07/12 09:03:34;;;;;;;8.43;3.92;;;21.00;79.70;;;;;;5016280;28;20033;-69
2023/07/12 09:06:00;;;;;;;8.23;3.67;;;21.30;80.60;;;;;;5054337;28;20075;-71
2023/07/12 09:08:37;;;;;;;7.35;3.75;;;21.70;77.70;;;;;;5037850;28;20129;-69
2023/07/12 09:11:11;;;;;;;8.48;3.33;;;22.50;70.60;;;;;;5030648;28;20102;-68
2023/07/12 09:13:38;;;;;;;10.20;3.20;;;22.70;74.00;;;;;;5030439;28;20110;-69
2023/07/12 09:16:24;;;;;;;8.55;4.35;;;21.90;74.90;;;;;;5029597;28;20045;-69
2023/07/12 09:18:55;;;;;;;9.23;4.57;;;19.90;89.50;;;;;;5030460;28;20069;-68
2023/07/12 09:21:24;;;;;;;12.63;4.38;;;18.80;99.90;;;;;;5034660;28;20076;-69
2023/07/12 09:23:52;;;;;;;6.88;4.10;;;18.20;99.90;;;;;;5038804;28;20082;-68
2023/07/12 09:26:26;;;;;;;7.85;4.00;;;18.00;99.90;;;;;;5019558;28;20041;-69
2023/07/12 09:28:56;;;;;;;8.18;4.32;;;17.80;99.90;;;;;;5046092;28;20071;-69
2023/07/12 09:31:27;;;;;;;8.77;4.68;;;17.90;99.90;;;;;;5041044;28;20633;-68
2023/07/12 09:33:58;;;;;;;8.18;4.47;;;17.80;99.90;;;;;;5044855;28;20033;-70
2023/07/12 09:36:24;;;;;;;7.22;4.00;;;18.00;99.90;;;;;;5034226;28;20090;-70
2023/07/12 09:38:49;;;;;;;8.27;4.45;;;18.00;99.90;;;;;;5043466;28;20049;-70
2023/07/12 09:41:24;;;;;;;10.85;4.85;;;18.10;99.90;;;;;;5047157;28;20048;-70
2023/07/12 09:43:55;;;;;;;7.95;4.75;;;18.30;99.90;;;;;;5044947;28;20056;-70
2023/07/12 09:46:37;;;;;;;7.20;4.55;;;19.20;99.90;;;;;;5032535;28;20059;-70
2023/07/12 09:49:19;;;;;;;7.35;4.10;;;19.60;99.90;;;;;;5027984;28;20053;-70
2023/07/12 09:51:52;;;;;;;8.70;3.85;;;20.00;99.90;;;;;;5037993;28;20045;-70
2023/07/12 09:54:42;;;;;;;6.30;3.60;;;20.00;99.90;;;;;;5040091;28;20113;-68
2023/07/12 09:57:19;;;;;;;7.28;3.63;;;20.50;99.90;;;;;;5030635;28;20346;-69
2023/07/12 10:00:00;;;;;;;8.60;3.72;;;20.70;99.90;;;;;;5025202;28;20071;-69
2023/07/12 10:03:02;;;;;;;9.35;3.42;;;20.60;99.90;;;;;;5035802;28;20049;-69
2023/07/12 10:05:28;;;;;;;6.25;3.30;;;20.50;99.90;;;;;;5017251;28;20173;-69
2023/07/12 10:08:01;;;;;;;7.45;3.42;;;20.20;99.90;;;;;;5036901;28;20028;-69
2023/07/12 10:10:48;;;;;;;6.95;3.53;;;20.00;99.90;;;;;;5033314;28;20635;-69
2023/07/12 10:13:48;;;;;;;11.90;3.78;;;19.60;99.90;;;;;;5039749;28;20037;-67
2023/07/12 10:16:34;;;;;;;7.80;3.00;;;19.20;99.90;;;;;;5037207;28;20056;-66
2023/07/12 10:19:13;;;;;;;5.70;2.80;;;18.60;99.90;;;;;;5037204;28;20435;-67
2023/07/12 10:21:39;;;;;;;7.57;2.95;;;18.60;99.90;;;;;;5014405;28;20095;-67
2023/07/12 10:24:12;;;;;;;6.88;2.90;;;18.70;99.90;;;;;;5042028;28;20041;-68
2023/07/12 10:26:37;;;;;;;7.30;2.88;;;19.30;99.90;;;;;;5026027;28;20049;-68
2023/07/12 10:29:21;;;;;;;8.43;2.90;;;20.60;99.90;;;;;;5034733;28;20199;-69
2023/07/12 10:31:51;;;;;;;5.05;2.67;;;21.40;97.90;;;;;;5030603;28;20063;-68
2023/07/12 10:34:22;;;;;;;6.50;2.20;;;22.60;96.10;;;;;;5032519;28;20037;-69
2023/07/12 10:36:54;;;;;;;5.03;1.65;;;23.30;92.80;;;;;;5051033;28;20174;-69
2023/07/12 10:39:24;;;;;;;5.72;1.90;;;24.70;89.70;;;;;;5031479;28;20338;-69
2023/07/12 10:41:58;;;;;;;5.45;2.20;;;25.30;79.60;;;;;;5043402;28;20052;-70
2023/07/12 10:44:29;;;;;;;7.63;2.25;;;25.80;68.60;;;;;;5032061;28;20051;-69
2023/07/12 10:46:58;;;;;;;6.68;2.15;;;26.10;68.70;;;;;;5027372;28;20426;-69
2023/07/12 10:49:58;;;;;;;5.03;1.83;;;26.60;68.00;;;;;;5038696;28;20128;-71
2023/07/12 10:52:33;;;;;;;9.63;2.20;;;27.00;61.40;;;;;;5037747;28;20072;-69
2023/07/12 10:55:08;;;;;;;4.70;1.75;;;26.50;62.50;;;;;;5040158;28;20032;-70
2023/07/12 10:58:13;;;;;;;3.05;1.85;;;26.40;63.70;;;;;;5039745;28;20041;-68
2023/07/12 11:00:52;;;;;;;6.82;2.08;;;25.00;60.00;;;;;;5037821;28;20760;-70
2023/07/12 11:03:21;;;;;;;6.17;2.00;;;24.50;68.00;;;;;;5049848;28;20072;-69
2023/07/12 11:06:04;;;;;;;4.88;2.15;;;24.00;70.30;;;;;;5049676;28;20369;-68
2023/07/12 11:08:33;;;;;;;7.55;1.92;;;23.50;71.50;;;;;;5043865;28;20052;-69
2023/07/12 11:11:21;;;;;;;3.70;1.95;;;23.30;73.40;;;;;;5047321;28;20113;-70
2023/07/12 11:13:54;;;;;;;5.50;2.20;;;23.10;72.10;;;;;;5023198;28;20128;-68
2023/07/12 11:16:20;;;;;;;6.05;1.95;;;22.70;68.40;;;;;;5031806;28;20445;-72
2023/07/12 11:18:57;;;;;;;2.42;1.65;;;22.40;68.40;;;;;;5040555;28;20048;-69
2023/07/12 11:21:46;;;;;;;3.65;1.42;;;22.30;68.60;;;;;;5049384;28;20040;-70
2023/07/12 11:24:26;;;;;;;3.03;1.50;;;22.10;69.10;;;;;;5039867;28;20523;-69
2023/07/12 11:27:26;;;;;;;2.40;1.70;;;22.00;68.80;;;;;;5039678;28;20045;-69
2023/07/12 11:29:54;;;;;;;5.03;1.30;;;22.20;67.00;;;;;;5035906;28;20073;-69
2023/07/12 11:32:37;;;;;;;4.22;2.08;;;22.30;67.90;;;;;;5046379;28;20479;-68
2023/07/12 11:35:19;;;;;;;2.17;1.33;;;22.40;62.10;;;;;;5047058;28;20522;-70
2023/07/12 11:37:48;;;;;;;4.25;1.73;;;22.80;66.40;;;;;;5041074;28;20126;-68
2023/07/12 11:40:20;;;;;;;3.00;1.50;;;22.80;64.80;;;;;;5036980;28;20060;-68
2023/07/12 11:42:47;;;;;;;3.72;1.38;;;22.70;65.30;;;;;;5042315;28;20042;-67
2023/07/12 11:45:17;;;;;;;3.55;1.45;;;22.80;65.80;;;;;;5032241;28;20436;-68
2023/07/12 11:47:45;;;;;;;4.20;1.63;;;22.70;64.50;;;;;;5040234;28;20049;-68
2023/07/12 11:50:26;;;;;;;2.33;1.35;;;22.80;64.00;;;;;;5034821;28;20057;-67
2023/07/12 11:52:53;;;;;;;3.67;1.40;;;23.00;63.80;;;;;;5047049;28;20123;-68
2023/07/12 11:55:25;;;;;;;3.80;1.40;;;23.10;63.50;;;;;;5039851;28;20045;-68
2023/07/12 11:57:51;;;;;;;5.63;1.38;;;23.50;62.80;;;;;;5047578;28;20045;-70
2023/07/12 12:00:20;;;;;;;2.35;1.23;;;23.80;59.70;;;;;;5031884;28;20124;-67
2023/07/12 12:02:53;;;;;;;5.45;1.58;;;24.30;61.60;;;;;;5033996;28;20509;-68
2023/07/12 12:05:25;;;;;;;3.70;1.40;;;24.30;57.70;;;;;;5040997;28;20465;-69
2023/07/12 12:07:53;;;;;;;4.70;1.50;;;24.40;60.40;;;;;;5045007;28;20518;-67
2023/07/12 12:10:34;;;;;;;11.70;3.25;;;24.60;60.10;;;;;;5044054;28;20049;-66
2023/07/12 12:12:59;;;;;;;5.70;1.27;;;24.70;59.30;;;;;;5038315;28;20041;-69
2023/07/12 12:15:30;;;;;;;3.17;1.33;;;24.50;56.10;;;;;;5045413;28;20045;-68
2023/07/12 12:18:03;;;;;;;1.95;1.20;;;24.50;57.30;;;;;;5043078;28;20029;-68
2023/07/12 12:20:29;;;;;;;4.10;1.10;;;24.60;56.80;;;;;;5027956;28;20060;-69
2023/07/12 12:22:56;;;;;;;2.78;1.40;;;24.80;55.40;;;;;;5031551;28;20722;-68
2023/07/12 12:25:25;;;;;;;4.47;1.73;;;26.10;53.00;;;;;;5035830;28;20056;-67
2023/07/12 12:27:51;;;;;;;3.03;1.10;;;26.00;52.50;;;;;;5038000;28;20033;-67
2023/07/12 12:30:22;;;;;;;2.05;1.00;;;25.80;53.70;;;;;;5032898;28;20055;-67
2023/07/12 12:33:05;;;;;;;3.72;1.00;;;26.50;53.50;;;;;;5041446;28;20390;-68
2023/07/12 12:35:32;;;;;;;2.88;1.15;;;26.40;53.70;;;;;;5040361;28;20068;-70
2023/07/12 12:38:01;;;;;;;1.95;1.08;;;26.50;52.20;;;;;;5029468;28;20041;-68
2023/07/12 12:40:27;;;;;;;4.43;1.17;;;26.80;51.30;;;;;;5031572;28;20068;-67
2023/07/12 12:43:01;;;;;;;2.65;0.90;;;27.80;50.20;;;;;;5037248;28;20079;-71
2023/07/12 12:45:32;;;;;;;1.98;0.85;;;29.30;45.20;;;;;;5029396;28;20037;-67
2023/07/12 12:47:58;;;;;;;2.10;0.80;;;30.90;43.60;;;;;;5031003;28;20037;-66
2023/07/12 12:50:24;;;;;;;6.65;1.20;;;32.50;40.70;;;;;;5034768;28;20119;-67
2023/07/12 12:52:49;;;;;;;4.20;1.02;;;33.20;40.40;;;;;;5038589;28;20052;-66